sensor_id;sensor_type;location;lat;lon;timestamp;pressure;altitude;pressure_sealevel;temperature;humidity
70445;BME280;57902;49.638;11.070;2022-12-29T00:01:29;97855.59;;;6.69;77.34
70445;BME280;57902;49.638;11.070;2022-12-29T00:03:56;97864.94;;;6.71;77.35
70445;BME280;57902;49.638;11.070;2022-12-29T00:06:22;97852.16;;;6.71;76.90
70445;BME280;57902;49.638;11.070;2022-12-29T00:08:49;97843.50;;;6.75;76.85
70445;BME280;57902;49.638;11.070;2022-12-29T00:11:18;97844.28;;;6.79;76.92
70445;BME280;57902;49.638;11.070;2022-12-29T00:13:46;97853.75;;;6.75;76.66
70445;BME280;57902;49.638;11.070;2022-12-29T00:16:32;97851.97;;;6.79;77.01
70445;BME280;57902;49.638;11.070;2022-12-29T00:18:59;97841.66;;;6.82;76.86
70445;BME280;57902;49.638;11.070;2022-12-29T00:21:26;97839.03;;;6.85;76.38
70445;BME280;57902;49.638;11.070;2022-12-29T00:24:16;97851.88;;;6.83;76.87
70445;BME280;57902;49.638;11.070;2022-12-29T00:29:39;97842.44;;;6.84;76.77
70445;BME280;57902;49.638;11.070;2022-12-29T00:32:24;97844.03;;;6.90;76.46
70445;BME280;57902;49.638;11.070;2022-12-29T00:35:10;97841.34;;;6.96;76.30
70445;BME280;57902;49.638;11.070;2022-12-29T00:37:42;97837.13;;;6.95;76.57
70445;BME280;57902;49.638;11.070;2022-12-29T00:40:28;97831.94;;;6.96;76.41
70445;BME280;57902;49.638;11.070;2022-12-29T00:43:13;97828.41;;;7.02;76.34
70445;BME280;57902;49.638;11.070;2022-12-29T00:45:58;97825.84;;;7.02;76.43
70445;BME280;57902;49.638;11.070;2022-12-29T00:48:24;97828.34;;;7.05;76.52
70445;BME280;57902;49.638;11.070;2022-12-29T00:51:09;97832.63;;;7.03;76.50
70445;BME280;57902;49.638;11.070;2022-12-29T00:53:35;97833.50;;;7.04;76.71
70445;BME280;57902;49.638;11.070;2022-12-29T00:56:02;97832.59;;;7.06;76.64
70445;BME280;57902;49.638;11.070;2022-12-29T00:58:30;97831.78;;;7.04;76.52
70445;BME280;57902;49.638;11.070;2022-12-29T01:01:07;97829.00;;;7.13;76.05
70445;BME280;57902;49.638;11.070;2022-12-29T01:03:35;97840.94;;;7.14;76.24
70445;BME280;57902;49.638;11.070;2022-12-29T01:06:04;97833.25;;;7.14;76.64
70445;BME280;57902;49.638;11.070;2022-12-29T01:08:31;97829.00;;;7.13;77.30
70445;BME280;57902;49.638;11.070;2022-12-29T01:11:09;97823.97;;;7.09;77.40
70445;BME280;57902;49.638;11.070;2022-12-29T01:13:36;97827.34;;;7.11;77.29
70445;BME280;57902;49.638;11.070;2022-12-29T01:16:06;97822.19;;;7.12;77.67
70445;BME280;57902;49.638;11.070;2022-12-29T01:18:33;97825.56;;;7.14;77.47
70445;BME280;57902;49.638;11.070;2022-12-29T01:21:01;97823.81;;;7.16;77.27
70445;BME280;57902;49.638;11.070;2022-12-29T01:23:30;97818.81;;;7.10;77.52
70445;BME280;57902;49.638;11.070;2022-12-29T01:25:57;97824.84;;;7.09;77.21
70445;BME280;57902;49.638;11.070;2022-12-29T01:28:23;97823.03;;;7.13;77.09
70445;BME280;57902;49.638;11.070;2022-12-29T01:30:51;97812.81;;;7.11;77.30
70445;BME280;57902;49.638;11.070;2022-12-29T01:33:18;97811.91;;;7.14;77.02
70445;BME280;57902;49.638;11.070;2022-12-29T01:35:44;97805.91;;;7.13;77.01
70445;BME280;57902;49.638;11.070;2022-12-29T01:38:10;97807.56;;;7.16;77.06
70445;BME280;57902;49.638;11.070;2022-12-29T01:40:43;97805.81;;;7.20;76.45
70445;BME280;57902;49.638;11.070;2022-12-29T01:43:12;97803.22;;;7.20;76.90
70445;BME280;57902;49.638;11.070;2022-12-29T01:45:47;97798.06;;;7.21;76.88
70445;BME280;57902;49.638;11.070;2022-12-29T01:48:16;97796.22;;;7.26;76.66
70445;BME280;57902;49.638;11.070;2022-12-29T01:50:51;97785.88;;;7.29;76.49
70445;BME280;57902;49.638;11.070;2022-12-29T01:53:27;97789.34;;;7.28;76.40
70445;BME280;57902;49.638;11.070;2022-12-29T01:55:59;97788.44;;;7.29;76.89
70445;BME280;57902;49.638;11.070;2022-12-29T01:58:30;97790.88;;;7.35;76.25
70445;BME280;57902;49.638;11.070;2022-12-29T02:00:59;97791.56;;;7.42;76.11
70445;BME280;57902;49.638;11.070;2022-12-29T02:03:27;97783.78;;;7.45;75.77
70445;BME280;57902;49.638;11.070;2022-12-29T02:06:00;97788.00;;;7.48;76.03
70445;BME280;57902;49.638;11.070;2022-12-29T02:08:29;97787.94;;;7.51;75.99
70445;BME280;57902;49.638;11.070;2022-12-29T02:10:56;97781.03;;;7.53;75.89
70445;BME280;57902;49.638;11.070;2022-12-29T02:13:24;97787.03;;;7.53;76.35
70445;BME280;57902;49.638;11.070;2022-12-29T02:18:55;97779.03;;;7.64;75.57
70445;BME280;57902;49.638;11.070;2022-12-29T02:21:49;97778.13;;;7.67;75.15
70445;BME280;57902;49.638;11.070;2022-12-29T02:24:49;97775.44;;;7.71;74.98
70445;BME280;57902;49.638;11.070;2022-12-29T02:30:15;97754.00;;;7.74;74.69
70445;BME280;57902;49.638;11.070;2022-12-29T02:33:23;97767.56;;;7.78;74.23
70445;BME280;57902;49.638;11.070;2022-12-29T02:36:23;97763.34;;;7.77;74.83
70445;BME280;57902;49.638;11.070;2022-12-29T02:39:02;97763.34;;;7.77;74.84
70445;BME280;57902;49.638;11.070;2022-12-29T02:41:39;97769.47;;;7.71;75.38
70445;BME280;57902;49.638;11.070;2022-12-29T02:44:24;97770.25;;;7.73;75.03
70445;BME280;57902;49.638;11.070;2022-12-29T02:47:00;97765.22;;;7.70;75.48
70445;BME280;57902;49.638;11.070;2022-12-29T02:49:36;97773.75;;;7.70;75.19
70445;BME280;57902;49.638;11.070;2022-12-29T02:52:12;97764.16;;;7.77;74.90
70445;BME280;57902;49.638;11.070;2022-12-29T02:54:41;97765.91;;;7.75;75.03
70445;BME280;57902;49.638;11.070;2022-12-29T02:57:28;97782.44;;;7.65;75.36
70445;BME280;57902;49.638;11.070;2022-12-29T03:00:03;97777.22;;;7.69;75.28
70445;BME280;57902;49.638;11.070;2022-12-29T03:05:41;97768.03;;;7.61;75.92
70445;BME280;57902;49.638;11.070;2022-12-29T03:11:08;97759.34;;;7.66;75.39
70445;BME280;57902;49.638;11.070;2022-12-29T03:14:06;97753.13;;;7.74;75.19
70445;BME280;57902;49.638;11.070;2022-12-29T03:17:00;97752.31;;;7.73;75.16
70445;BME280;57902;49.638;11.070;2022-12-29T03:19:33;97749.00;;;7.69;75.66
70445;BME280;57902;49.638;11.070;2022-12-29T03:22:04;97751.47;;;7.73;75.32
70445;BME280;57902;49.638;11.070;2022-12-29T03:24:56;97740.34;;;7.72;75.64
70445;BME280;57902;49.638;11.070;2022-12-29T03:27:29;97743.81;;;7.71;75.77
70445;BME280;57902;49.638;11.070;2022-12-29T03:30:00;97741.38;;;7.66;76.03
70445;BME280;57902;49.638;11.070;2022-12-29T03:32:37;97733.38;;;7.77;75.48
70445;BME280;57902;49.638;11.070;2022-12-29T03:35:06;97738.59;;;7.74;75.40
70445;BME280;57902;49.638;11.070;2022-12-29T03:37:43;97737.59;;;7.80;75.13
70445;BME280;57902;49.638;11.070;2022-12-29T03:40:11;97735.16;;;7.74;75.71
70445;BME280;57902;49.638;11.070;2022-12-29T03:42:38;97738.50;;;7.77;75.64
70445;BME280;57902;49.638;11.070;2022-12-29T03:45:06;97729.00;;;7.81;75.16
70445;BME280;57902;49.638;11.070;2022-12-29T03:47:33;97735.03;;;7.80;74.85
70445;BME280;57902;49.638;11.070;2022-12-29T03:50:00;97736.78;;;7.78;74.97
70445;BME280;57902;49.638;11.070;2022-12-29T03:52:26;97734.03;;;7.84;75.14
70445;BME280;57902;49.638;11.070;2022-12-29T03:54:52;97732.38;;;7.83;74.92
70445;BME280;57902;49.638;11.070;2022-12-29T03:57:19;97737.50;;;7.83;75.12
70445;BME280;57902;49.638;11.070;2022-12-29T03:59:45;97740.13;;;7.81;75.19
70445;BME280;57902;49.638;11.070;2022-12-29T04:02:12;97741.63;;;7.88;74.80
70445;BME280;57902;49.638;11.070;2022-12-29T04:04:39;97731.38;;;7.88;74.60
70445;BME280;57902;49.638;11.070;2022-12-29T04:07:06;97742.56;;;7.86;74.87
70445;BME280;57902;49.638;11.070;2022-12-29T04:09:32;97733.16;;;7.85;74.89
70445;BME280;57902;49.638;11.070;2022-12-29T04:11:59;97737.34;;;7.89;74.76
70445;BME280;57902;49.638;11.070;2022-12-29T04:14:29;97732.19;;;7.89;74.51
70445;BME280;57902;49.638;11.070;2022-12-29T04:16:55;97740.69;;;7.91;74.75
70445;BME280;57902;49.638;11.070;2022-12-29T04:19:22;97741.63;;;7.88;74.52
70445;BME280;57902;49.638;11.070;2022-12-29T04:21:51;97748.50;;;7.86;74.86
70445;BME280;57902;49.638;11.070;2022-12-29T04:24:17;97743.50;;;7.82;74.86
70445;BME280;57902;49.638;11.070;2022-12-29T04:26:44;97744.25;;;7.87;74.72
70445;BME280;57902;49.638;11.070;2022-12-29T04:29:10;97742.38;;;7.92;74.34
70445;BME280;57902;49.638;11.070;2022-12-29T04:31:37;97741.47;;;7.95;74.22
70445;BME280;57902;49.638;11.070;2022-12-29T04:34:06;97741.47;;;7.95;74.24
70445;BME280;57902;49.638;11.070;2022-12-29T04:36:33;97739.81;;;7.92;74.30
70445;BME280;57902;49.638;11.070;2022-12-29T04:38:59;97738.13;;;7.91;74.41
70445;BME280;57902;49.638;11.070;2022-12-29T04:41:26;97742.41;;;7.91;74.41
70445;BME280;57902;49.638;11.070;2022-12-29T04:43:52;97745.78;;;7.93;74.03
70445;BME280;57902;49.638;11.070;2022-12-29T04:46:19;97739.16;;;7.84;74.78
70445;BME280;57902;49.638;11.070;2022-12-29T04:48:45;97741.69;;;7.87;74.61
70445;BME280;57902;49.638;11.070;2022-12-29T04:51:12;97734.91;;;7.84;74.55
70445;BME280;57902;49.638;11.070;2022-12-29T04:53:39;97736.56;;;7.85;74.33
70445;BME280;57902;49.638;11.070;2022-12-29T04:56:06;97723.81;;;7.82;74.57
70445;BME280;57902;49.638;11.070;2022-12-29T04:58:33;97740.06;;;7.83;74.29
70445;BME280;57902;49.638;11.070;2022-12-29T05:00:59;97732.66;;;7.72;74.69
70445;BME280;57902;49.638;11.070;2022-12-29T05:03:26;97733.50;;;7.73;74.58
70445;BME280;57902;49.638;11.070;2022-12-29T05:05:53;97737.81;;;7.70;74.78
70445;BME280;57902;49.638;11.070;2022-12-29T05:08:21;97744.78;;;7.67;74.82
70445;BME280;57902;49.638;11.070;2022-12-29T05:10:53;97735.91;;;7.79;74.29
70445;BME280;57902;49.638;11.070;2022-12-29T05:13:20;97734.16;;;7.79;74.44
70445;BME280;57902;49.638;11.070;2022-12-29T05:15:53;97736.91;;;7.73;74.89
70445;BME280;57902;49.638;11.070;2022-12-29T05:18:20;97738.28;;;7.85;74.04
70445;BME280;57902;49.638;11.070;2022-12-29T05:20:47;97733.25;;;7.82;73.77
70445;BME280;57902;49.638;11.070;2022-12-29T05:23:13;97735.81;;;7.82;73.94
70445;BME280;57902;49.638;11.070;2022-12-29T05:25:40;97731.59;;;7.79;74.21
70445;BME280;57902;49.638;11.070;2022-12-29T05:28:10;97737.69;;;7.77;74.17
70445;BME280;57902;49.638;11.070;2022-12-29T05:30:36;97724.16;;;7.70;74.47
70445;BME280;57902;49.638;11.070;2022-12-29T05:33:03;97702.84;;;7.68;74.83
70445;BME280;57902;49.638;11.070;2022-12-29T05:35:29;97708.69;;;7.73;73.80
70445;BME280;57902;49.638;11.070;2022-12-29T05:37:55;97709.66;;;7.69;73.93
70445;BME280;57902;49.638;11.070;2022-12-29T05:40:22;97711.38;;;7.68;73.93
70445;BME280;57902;49.638;11.070;2022-12-29T05:42:51;97722.50;;;7.67;73.68
70445;BME280;57902;49.638;11.070;2022-12-29T05:45:18;97721.84;;;7.61;74.19
70445;BME280;57902;49.638;11.070;2022-12-29T05:47:44;97722.69;;;7.61;73.94
70445;BME280;57902;49.638;11.070;2022-12-29T05:50:10;97724.59;;;7.53;74.33
70445;BME280;57902;49.638;11.070;2022-12-29T05:52:37;97722.25;;;7.45;74.69
70445;BME280;57902;49.638;11.070;2022-12-29T05:55:04;97714.56;;;7.45;74.15
70445;BME280;57902;49.638;11.070;2022-12-29T05:57:30;97727.50;;;7.41;74.52
70445;BME280;57902;49.638;11.070;2022-12-29T05:59:56;97721.72;;;7.32;75.35
70445;BME280;57902;49.638;11.070;2022-12-29T06:02:23;97720.84;;;7.33;74.85
70445;BME280;57902;49.638;11.070;2022-12-29T06:04:49;97724.31;;;7.31;74.73
70445;BME280;57902;49.638;11.070;2022-12-29T06:07:16;97717.44;;;7.33;74.66
70445;BME280;57902;49.638;11.070;2022-12-29T06:09:42;97715.78;;;7.30;74.93
70445;BME280;57902;49.638;11.070;2022-12-29T06:12:09;97720.13;;;7.28;75.01
70445;BME280;57902;49.638;11.070;2022-12-29T06:14:35;97724.34;;;7.29;74.73
70445;BME280;57902;49.638;11.070;2022-12-29T06:17:03;97723.59;;;7.26;75.08
70445;BME280;57902;49.638;11.070;2022-12-29T06:19:30;97716.13;;;7.18;75.50
70445;BME280;57902;49.638;11.070;2022-12-29T06:21:56;97715.28;;;7.16;75.37
70445;BME280;57902;49.638;11.070;2022-12-29T06:24:23;97709.41;;;7.12;75.80
70445;BME280;57902;49.638;11.070;2022-12-29T06:26:49;97711.88;;;7.17;75.10
70445;BME280;57902;49.638;11.070;2022-12-29T06:29:15;97714.44;;;7.17;75.20
70445;BME280;57902;49.638;11.070;2022-12-29T06:31:46;97728.16;;;7.14;75.13
70445;BME280;57902;49.638;11.070;2022-12-29T06:34:13;97734.19;;;7.12;75.37
70445;BME280;57902;49.638;11.070;2022-12-29T06:36:39;97726.56;;;7.09;75.40
70445;BME280;57902;49.638;11.070;2022-12-29T06:39:06;97728.38;;;7.05;75.64
70445;BME280;57902;49.638;11.070;2022-12-29T06:41:32;97731.84;;;7.03;75.73
70445;BME280;57902;49.638;11.070;2022-12-29T06:43:58;97737.03;;;7.01;75.83
70445;BME280;57902;49.638;11.070;2022-12-29T06:46:25;97730.19;;;7.00;75.77
70445;BME280;57902;49.638;11.070;2022-12-29T06:48:54;97733.59;;;7.02;75.54
70445;BME280;57902;49.638;11.070;2022-12-29T06:51:20;97740.59;;;6.94;76.20
70445;BME280;57902;49.638;11.070;2022-12-29T06:53:46;97746.53;;;6.97;75.92
70445;BME280;57902;49.638;11.070;2022-12-29T06:56:13;97739.66;;;6.98;75.67
70445;BME280;57902;49.638;11.070;2022-12-29T06:58:39;97730.19;;;7.00;75.04
70445;BME280;57902;49.638;11.070;2022-12-29T07:01:06;97727.88;;;6.91;76.13
70445;BME280;57902;49.638;11.070;2022-12-29T07:03:32;97725.28;;;6.92;75.74
70445;BME280;57902;49.638;11.070;2022-12-29T07:05:59;97726.97;;;6.93;75.78
70445;BME280;57902;49.638;11.070;2022-12-29T07:08:25;97738.94;;;6.91;75.57
70445;BME280;57902;49.638;11.070;2022-12-29T07:10:52;97728.66;;;6.93;75.80
70445;BME280;57902;49.638;11.070;2022-12-29T07:13:18;97732.06;;;6.95;75.45
70445;BME280;57902;49.638;11.070;2022-12-29T07:15:44;97737.19;;;6.95;75.44
70445;BME280;57902;49.638;11.070;2022-12-29T07:18:11;97750.63;;;7.03;75.37
70445;BME280;57902;49.638;11.070;2022-12-29T07:20:37;97754.88;;;7.04;75.30
70445;BME280;57902;49.638;11.070;2022-12-29T07:23:04;97750.59;;;7.06;75.31
70445;BME280;57902;49.638;11.070;2022-12-29T07:25:30;97753.09;;;7.08;75.48
70445;BME280;57902;49.638;11.070;2022-12-29T07:27:56;97764.91;;;7.13;75.46
70445;BME280;57902;49.638;11.070;2022-12-29T07:30:23;97758.84;;;7.17;75.18
70445;BME280;57902;49.638;11.070;2022-12-29T07:32:49;97759.53;;;7.24;74.95
70445;BME280;57902;49.638;11.070;2022-12-29T07:35:16;97758.78;;;7.19;75.46
70445;BME280;57902;49.638;11.070;2022-12-29T07:37:44;97755.25;;;7.25;74.86
70445;BME280;57902;49.638;11.070;2022-12-29T07:40:11;97755.88;;;7.34;74.28
70445;BME280;57902;49.638;11.070;2022-12-29T07:42:39;97754.97;;;7.37;74.12
70445;BME280;57902;49.638;11.070;2022-12-29T07:45:06;97755.75;;;7.39;74.09
70445;BME280;57902;49.638;11.070;2022-12-29T07:47:32;97756.66;;;7.36;74.49
70445;BME280;57902;49.638;11.070;2022-12-29T07:49:59;97763.44;;;7.39;74.43
70445;BME280;57902;49.638;11.070;2022-12-29T07:52:25;97768.41;;;7.45;74.36
70445;BME280;57902;49.638;11.070;2022-12-29T07:54:52;97755.53;;;7.47;73.95
70445;BME280;57902;49.638;11.070;2022-12-29T07:57:18;97758.94;;;7.49;74.24
70445;BME280;57902;49.638;11.070;2022-12-29T07:59:45;97751.09;;;7.53;74.13
70445;BME280;57902;49.638;11.070;2022-12-29T08:02:11;97749.41;;;7.52;74.16
70445;BME280;57902;49.638;11.070;2022-12-29T08:04:38;97753.63;;;7.55;74.21
70445;BME280;57902;49.638;11.070;2022-12-29T08:07:04;97754.38;;;7.59;73.80
70445;BME280;57902;49.638;11.070;2022-12-29T08:09:31;97761.13;;;7.63;73.94
70445;BME280;57902;49.638;11.070;2022-12-29T08:11:57;97742.13;;;7.70;73.46
70445;BME280;57902;49.638;11.070;2022-12-29T08:14:24;97753.22;;;7.70;73.81
70445;BME280;57902;49.638;11.070;2022-12-29T08:16:50;97759.16;;;7.73;73.74
70445;BME280;57902;49.638;11.070;2022-12-29T08:19:16;97772.88;;;7.71;73.86
70445;BME280;57902;49.638;11.070;2022-12-29T08:21:43;97778.69;;;7.78;72.93
70445;BME280;57902;49.638;11.070;2022-12-29T08:24:09;97775.88;;;7.87;72.50
70445;BME280;57902;49.638;11.070;2022-12-29T08:26:36;97772.34;;;7.92;71.93
70445;BME280;57902;49.638;11.070;2022-12-29T08:29:02;97770.53;;;7.95;71.72
70445;BME280;57902;49.638;11.070;2022-12-29T08:31:31;97769.56;;;7.99;71.65
70445;BME280;57902;49.638;11.070;2022-12-29T08:33:59;97763.50;;;8.02;71.76
70445;BME280;57902;49.638;11.070;2022-12-29T08:36:26;97777.03;;;8.07;71.52
70445;BME280;57902;49.638;11.070;2022-12-29T08:38:52;97762.31;;;8.14;71.44
70445;BME280;57902;49.638;11.070;2022-12-29T08:41:19;97749.25;;;8.21;70.69
70445;BME280;57902;49.638;11.070;2022-12-29T08:43:47;97743.16;;;8.26;70.54
70445;BME280;57902;49.638;11.070;2022-12-29T08:46:14;97772.19;;;8.28;70.92
70445;BME280;57902;49.638;11.070;2022-12-29T08:48:40;97769.53;;;8.31;71.13
70445;BME280;57902;49.638;11.070;2022-12-29T08:51:07;97771.03;;;8.38;70.98
70445;BME280;57902;49.638;11.070;2022-12-29T08:53:34;97764.78;;;8.48;70.20
70445;BME280;57902;49.638;11.070;2022-12-29T08:56:01;97765.41;;;8.56;69.98
70445;BME280;57902;49.638;11.070;2022-12-29T08:58:31;97761.56;;;8.70;69.28
70445;BME280;57902;49.638;11.070;2022-12-29T09:00:58;97768.06;;;8.82;68.74
70445;BME280;57902;49.638;11.070;2022-12-29T09:03:25;97763.72;;;8.84;68.99
70445;BME280;57902;49.638;11.070;2022-12-29T09:06:13;97764.56;;;8.84;68.91
70445;BME280;57902;49.638;11.070;2022-12-29T09:08:39;97767.00;;;8.89;68.74
70445;BME280;57902;49.638;11.070;2022-12-29T09:11:10;97762.47;;;8.97;68.72
70445;BME280;57902;49.638;11.070;2022-12-29T09:13:38;97768.34;;;9.01;68.32
70445;BME280;57902;49.638;11.070;2022-12-29T09:16:05;97760.38;;;9.08;68.16
70445;BME280;57902;49.638;11.070;2022-12-29T09:18:34;97769.53;;;9.17;68.26
70445;BME280;57902;49.638;11.070;2022-12-29T09:21:03;97765.19;;;9.19;67.82
70445;BME280;57902;49.638;11.070;2022-12-29T09:23:31;97780.72;;;9.16;68.21
70445;BME280;57902;49.638;11.070;2022-12-29T09:25:57;97774.38;;;9.26;68.06
70445;BME280;57902;49.638;11.070;2022-12-29T09:28:24;97775.38;;;9.22;68.62
70445;BME280;57902;49.638;11.070;2022-12-29T09:30:50;97777.53;;;9.35;68.14
70445;BME280;57902;49.638;11.070;2022-12-29T09:33:17;97771.34;;;9.40;68.02
70445;BME280;57902;49.638;11.070;2022-12-29T09:35:49;97768.78;;;9.40;68.46
70445;BME280;57902;49.638;11.070;2022-12-29T09:38:16;97772.13;;;9.42;67.92
70445;BME280;57902;49.638;11.070;2022-12-29T09:40:45;97775.34;;;9.49;67.92
70445;BME280;57902;49.638;11.070;2022-12-29T09:43:52;97769.31;;;9.50;67.88
70445;BME280;57902;49.638;11.070;2022-12-29T09:46:25;97763.31;;;9.50;68.03
70445;BME280;57902;49.638;11.070;2022-12-29T09:51:47;97752.97;;;9.51;68.76
70445;BME280;57902;49.638;11.070;2022-12-29T09:56:43;97759.97;;;9.73;67.47
70445;BME280;57902;49.638;11.070;2022-12-29T09:59:16;97749.84;;;9.68;68.01
70445;BME280;57902;49.638;11.070;2022-12-29T10:01:53;97761.00;;;9.67;68.13
70445;BME280;57902;49.638;11.070;2022-12-29T10:04:26;97757.56;;;9.68;68.54
70445;BME280;57902;49.638;11.070;2022-12-29T10:07:17;97754.94;;;9.70;68.67
70445;BME280;57902;49.638;11.070;2022-12-29T10:15:54;97746.94;;;9.77;68.73
70445;BME280;57902;49.638;11.070;2022-12-29T10:24:02;97739.78;;;9.86;69.35
70445;BME280;57902;49.638;11.070;2022-12-29T10:26:39;97743.88;;;9.91;69.01
70445;BME280;57902;49.638;11.070;2022-12-29T10:29:24;97749.69;;;9.96;68.64
70445;BME280;57902;49.638;11.070;2022-12-29T10:32:20;97745.34;;;9.98;69.18
70445;BME280;57902;49.638;11.070;2022-12-29T10:34:55;97736.53;;;10.04;69.33
70445;BME280;57902;49.638;11.070;2022-12-29T10:37:43;97736.16;;;10.15;69.07
70445;BME280;57902;49.638;11.070;2022-12-29T10:43:33;97724.44;;;10.30;69.18
70445;BME280;57902;49.638;11.070;2022-12-29T10:46:05;97720.53;;;10.43;68.60
70445;BME280;57902;49.638;11.070;2022-12-29T10:48:34;97728.75;;;10.53;68.63
70445;BME280;57902;49.638;11.070;2022-12-29T10:51:07;97725.69;;;10.65;67.94
70445;BME280;57902;49.638;11.070;2022-12-29T10:56:16;97716.75;;;10.96;67.41
70445;BME280;57902;49.638;11.070;2022-12-29T10:58:48;97719.63;;;11.11;66.52
70445;BME280;57902;49.638;11.070;2022-12-29T11:01:17;97725.53;;;11.13;66.19
70445;BME280;57902;49.638;11.070;2022-12-29T11:04:17;97720.91;;;11.21;65.99
70445;BME280;57902;49.638;11.070;2022-12-29T11:06:48;97715.13;;;11.16;66.17
70445;BME280;57902;49.638;11.070;2022-12-29T11:09:22;97714.19;;;11.17;65.89
70445;BME280;57902;49.638;11.070;2022-12-29T11:12:27;97707.63;;;11.10;65.94
70445;BME280;57902;49.638;11.070;2022-12-29T11:17:57;97714.19;;;11.17;66.48
70445;BME280;57902;49.638;11.070;2022-12-29T11:22:57;97703.81;;;11.18;65.82
70445;BME280;57902;49.638;11.070;2022-12-29T11:25:23;97714.25;;;11.15;66.42
70445;BME280;57902;49.638;11.070;2022-12-29T11:28:00;97721.38;;;11.10;68.21
70445;BME280;57902;49.638;11.070;2022-12-29T11:30:29;97711.81;;;11.12;67.86
70445;BME280;57902;49.638;11.070;2022-12-29T11:32:57;97709.28;;;11.11;68.28
70445;BME280;57902;49.638;11.070;2022-12-29T11:35:44;97716.84;;;11.15;67.47
70445;BME280;57902;49.638;11.070;2022-12-29T11:38:20;97716.22;;;11.10;68.03
70445;BME280;57902;49.638;11.070;2022-12-29T11:40:48;97721.38;;;11.10;68.09
70445;BME280;57902;49.638;11.070;2022-12-29T11:43:36;97725.53;;;11.13;67.71
70445;BME280;57902;49.638;11.070;2022-12-29T11:46:05;97737.66;;;11.11;69.35
70445;BME280;57902;49.638;11.070;2022-12-29T11:48:41;97730.81;;;11.10;70.43
70445;BME280;57902;49.638;11.070;2022-12-29T11:51:09;97732.03;;;11.01;70.46
70445;BME280;57902;49.638;11.070;2022-12-29T11:53:46;97738.31;;;10.95;70.90
70445;BME280;57902;49.638;11.070;2022-12-29T11:56:16;97736.00;;;10.88;72.15
70445;BME280;57902;49.638;11.070;2022-12-29T11:58:43;97742.25;;;10.82;72.80
70445;BME280;57902;49.638;11.070;2022-12-29T12:01:19;97745.81;;;10.79;73.47
70445;BME280;57902;49.638;11.070;2022-12-29T12:03:58;97739.38;;;10.67;74.08
70445;BME280;57902;49.638;11.070;2022-12-29T12:06:28;97732.19;;;10.76;74.46
70445;BME280;57902;49.638;11.070;2022-12-29T12:08:59;97734.00;;;10.74;74.79
70445;BME280;57902;49.638;11.070;2022-12-29T12:11:37;97735.84;;;10.70;75.42
70445;BME280;57902;49.638;11.070;2022-12-29T12:16:57;97720.66;;;10.62;75.45
70445;BME280;57902;49.638;11.070;2022-12-29T12:19:41;97719.91;;;10.60;76.07
70445;BME280;57902;49.638;11.070;2022-12-29T12:24:58;97724.94;;;10.63;76.69
70445;BME280;57902;49.638;11.070;2022-12-29T12:27:38;97723.00;;;10.68;76.51
70445;BME280;57902;49.638;11.070;2022-12-29T12:30:18;97728.34;;;10.64;76.38
70445;BME280;57902;49.638;11.070;2022-12-29T12:36:14;97723.56;;;10.77;75.96
70445;BME280;57902;49.638;11.070;2022-12-29T12:44:03;97723.56;;;10.77;75.18
70445;BME280;57902;49.638;11.070;2022-12-29T12:49:56;97734.44;;;10.83;74.91
70445;BME280;57902;49.638;11.070;2022-12-29T12:52:37;97719.47;;;10.93;74.54
70445;BME280;57902;49.638;11.070;2022-12-29T12:55:42;97725.50;;;10.92;74.91
70445;BME280;57902;49.638;11.070;2022-12-29T12:58:24;97716.94;;;10.92;74.77
70445;BME280;57902;49.638;11.070;2022-12-29T13:01:03;97723.13;;;10.88;75.18
70445;BME280;57902;49.638;11.070;2022-12-29T13:11:26;97729.00;;;10.91;75.52
70445;BME280;57902;49.638;11.070;2022-12-29T13:14:04;97733.56;;;10.84;76.00
70445;BME280;57902;49.638;11.070;2022-12-29T13:16:47;97721.41;;;10.88;76.04
70445;BME280;57902;49.638;11.070;2022-12-29T13:19:25;97726.50;;;10.90;76.52
70445;BME280;57902;49.638;11.070;2022-12-29T13:30:09;97729.25;;;10.85;76.87
70445;BME280;57902;49.638;11.070;2022-12-29T13:33:02;97739.59;;;10.83;77.69
70445;BME280;57902;49.638;11.070;2022-12-29T13:35:52;97732.06;;;10.79;78.10
70445;BME280;57902;49.638;11.070;2022-12-29T13:38:24;97736.31;;;10.80;77.95
70445;BME280;57902;49.638;11.070;2022-12-29T13:40:56;97720.09;;;10.78;78.27
70445;BME280;57902;49.638;11.070;2022-12-29T13:43:28;97718.69;;;10.69;79.09
70445;BME280;57902;49.638;11.070;2022-12-29T13:46:10;97727.28;;;10.70;78.91
70445;BME280;57902;49.638;11.070;2022-12-29T13:48:47;97732.91;;;10.79;78.48
70445;BME280;57902;49.638;11.070;2022-12-29T13:51:18;97732.19;;;10.76;78.94
70445;BME280;57902;49.638;11.070;2022-12-29T13:54:26;97741.03;;;10.68;79.27
70445;BME280;57902;49.638;11.070;2022-12-29T14:00:02;97748.06;;;10.65;80.14
70445;BME280;57902;49.638;11.070;2022-12-29T14:02:31;97748.00;;;10.66;80.46
70445;BME280;57902;49.638;11.070;2022-12-29T14:07:46;97751.91;;;10.55;81.71
70445;BME280;57902;49.638;11.070;2022-12-29T14:13:18;97749.72;;;10.44;82.43
70445;BME280;57902;49.638;11.070;2022-12-29T14:15:52;97749.06;;;10.39;82.59
70445;BME280;57902;49.638;11.070;2022-12-29T14:18:21;97754.22;;;10.39;83.18
70445;BME280;57902;49.638;11.070;2022-12-29T14:23:37;97741.59;;;10.31;83.74
70445;BME280;57902;49.638;11.070;2022-12-29T14:28:35;97755.94;;;10.14;85.69
70445;BME280;57902;49.638;11.070;2022-12-29T14:31:04;97768.00;;;10.12;86.26
70445;BME280;57902;49.638;11.070;2022-12-29T14:33:33;97758.88;;;10.04;87.66
70445;BME280;57902;49.638;11.070;2022-12-29T14:36:26;97763.19;;;10.03;88.71
70445;BME280;57902;49.638;11.070;2022-12-29T14:38:59;97751.22;;;10.02;89.27
70445;BME280;57902;49.638;11.070;2022-12-29T14:41:30;97750.31;;;10.03;88.94
70445;BME280;57902;49.638;11.070;2022-12-29T14:44:17;97750.50;;;9.98;88.44
70445;BME280;57902;49.638;11.070;2022-12-29T14:49:26;97750.84;;;9.88;88.57
70445;BME280;57902;49.638;11.070;2022-12-29T14:52:04;97757.81;;;9.86;89.00
70445;BME280;57902;49.638;11.070;2022-12-29T14:56:59;97759.75;;;9.79;89.26